Terminal Aerodrome Forecast
Issued by NWS Louisville, KY

Home | Current Version | Previous Version | Text Only | Print | Product List | Glossary On
Versions: 1 2 3 4 5 6 7 8 9 10 11 12 13 14 15
000
FTUS43 KLMK 281700
TAFSDF
TAF
KSDF 281720Z 2818/2924 36006KT P6SM SKC
     FM291000 17008KT P6SM SCT150
     FM291600 21012G20KT P6SM OVC080=

USA.gov is the U.S. government's official web portal to all federal, state and local government web resources and services.